sensor_id;sensor_type;location;lat;lon;timestamp;P1;durP1;ratioP1;P2;durP2;ratioP2
19687;SDS011;9993;52.008;4.732;2023-03-14T00:27:04;11.53;;;3.00;;
19687;SDS011;9993;52.008;4.732;2023-03-14T00:54:09;9.97;;;4.20;;
19687;SDS011;9993;52.008;4.732;2023-03-14T00:56:43;8.47;;;3.33;;
19687;SDS011;9993;52.008;4.732;2023-03-14T01:08:26;9.57;;;4.13;;
19687;SDS011;9993;52.008;4.732;2023-03-14T01:10:51;6.50;;;3.23;;
19687;SDS011;9993;52.008;4.732;2023-03-14T01:13:22;12.80;;;4.10;;
19687;SDS011;9993;52.008;4.732;2023-03-14T01:28:01;11.87;;;3.57;;
19687;SDS011;9993;52.008;4.732;2023-03-14T01:55:22;6.73;;;2.30;;
19687;SDS011;9993;52.008;4.732;2023-03-14T02:22:12;7.00;;;2.53;;
19687;SDS011;9993;52.008;4.732;2023-03-14T02:25:11;9.03;;;2.70;;
19687;SDS011;9993;52.008;4.732;2023-03-14T02:31:05;6.40;;;2.20;;
19687;SDS011;9993;52.008;4.732;2023-03-14T02:53:57;8.30;;;2.63;;
19687;SDS011;9993;52.008;4.732;2023-03-14T03:02:27;3.77;;;2.17;;
19687;SDS011;9993;52.008;4.732;2023-03-14T03:13:33;9.70;;;3.10;;
19687;SDS011;9993;52.008;4.732;2023-03-14T03:19:36;12.17;;;3.83;;
19687;SDS011;9993;52.008;4.732;2023-03-14T03:40:07;7.60;;;3.67;;
19687;SDS011;9993;52.008;4.732;2023-03-14T03:49:22;10.90;;;2.90;;
19687;SDS011;9993;52.008;4.732;2023-03-14T03:51:50;11.07;;;3.03;;
19687;SDS011;9993;52.008;4.732;2023-03-14T03:54:17;8.73;;;3.43;;
19687;SDS011;9993;52.008;4.732;2023-03-14T03:56:51;4.57;;;2.83;;
19687;SDS011;9993;52.008;4.732;2023-03-14T04:26:32;6.53;;;2.70;;
19687;SDS011;9993;52.008;4.732;2023-03-14T04:41:31;7.90;;;2.77;;
19687;SDS011;9993;52.008;4.732;2023-03-14T04:44:02;7.17;;;3.13;;
19687;SDS011;9993;52.008;4.732;2023-03-14T04:46:34;8.20;;;2.90;;
19687;SDS011;9993;52.008;4.732;2023-03-14T04:49:32;5.77;;;2.40;;
19687;SDS011;9993;52.008;4.732;2023-03-14T05:01:06;5.10;;;2.83;;
19687;SDS011;9993;52.008;4.732;2023-03-14T05:04:08;4.80;;;2.77;;
19687;SDS011;9993;52.008;4.732;2023-03-14T05:06:57;7.47;;;3.03;;
19687;SDS011;9993;52.008;4.732;2023-03-14T05:09:22;7.30;;;2.90;;
19687;SDS011;9993;52.008;4.732;2023-03-14T05:30:04;8.90;;;3.43;;
19687;SDS011;9993;52.008;4.732;2023-03-14T05:32:39;6.53;;;3.20;;
19687;SDS011;9993;52.008;4.732;2023-03-14T07:10:12;7.70;;;2.83;;
19687;SDS011;9993;52.008;4.732;2023-03-14T07:12:43;3.60;;;1.87;;
19687;SDS011;9993;52.008;4.732;2023-03-14T07:15:08;5.70;;;2.30;;
19687;SDS011;9993;52.008;4.732;2023-03-14T07:17:37;4.30;;;2.20;;
19687;SDS011;9993;52.008;4.732;2023-03-14T07:20:02;5.07;;;2.17;;
19687;SDS011;9993;52.008;4.732;2023-03-14T07:22:32;4.30;;;2.17;;
19687;SDS011;9993;52.008;4.732;2023-03-14T07:28:26;7.23;;;2.67;;
19687;SDS011;9993;52.008;4.732;2023-03-14T07:30:55;5.23;;;1.93;;
19687;SDS011;9993;52.008;4.732;2023-03-14T07:33:46;4.93;;;2.40;;
19687;SDS011;9993;52.008;4.732;2023-03-14T07:36:15;10.60;;;2.47;;
19687;SDS011;9993;52.008;4.732;2023-03-14T07:38:52;5.30;;;2.13;;
19687;SDS011;9993;52.008;4.732;2023-03-14T07:41:26;3.30;;;2.03;;
19687;SDS011;9993;52.008;4.732;2023-03-14T07:43:51;7.37;;;2.13;;
19687;SDS011;9993;52.008;4.732;2023-03-14T07:46:25;7.30;;;2.30;;
19687;SDS011;9993;52.008;4.732;2023-03-14T07:48:53;9.00;;;2.43;;
19687;SDS011;9993;52.008;4.732;2023-03-14T07:51:24;8.30;;;2.50;;
19687;SDS011;9993;52.008;4.732;2023-03-14T07:53:49;6.43;;;2.70;;
19687;SDS011;9993;52.008;4.732;2023-03-14T07:56:20;3.97;;;1.97;;
19687;SDS011;9993;52.008;4.732;2023-03-14T07:58:46;3.77;;;1.63;;
19687;SDS011;9993;52.008;4.732;2023-03-14T08:01:17;3.13;;;1.63;;
19687;SDS011;9993;52.008;4.732;2023-03-14T08:03:45;4.67;;;2.30;;
19687;SDS011;9993;52.008;4.732;2023-03-14T08:06:10;7.90;;;3.07;;
19687;SDS011;9993;52.008;4.732;2023-03-14T08:09:03;6.83;;;3.03;;
19687;SDS011;9993;52.008;4.732;2023-03-14T08:11:45;5.57;;;3.43;;
19687;SDS011;9993;52.008;4.732;2023-03-14T08:17:29;4.60;;;2.30;;
19687;SDS011;9993;52.008;4.732;2023-03-14T08:26:07;4.90;;;1.90;;
19687;SDS011;9993;52.008;4.732;2023-03-14T08:28:32;6.80;;;2.70;;
19687;SDS011;9993;52.008;4.732;2023-03-14T08:31:03;5.63;;;2.10;;
19687;SDS011;9993;52.008;4.732;2023-03-14T08:33:30;4.33;;;2.00;;
19687;SDS011;9993;52.008;4.732;2023-03-14T08:41:27;3.10;;;1.73;;
19687;SDS011;9993;52.008;4.732;2023-03-14T08:43:52;3.43;;;1.73;;
19687;SDS011;9993;52.008;4.732;2023-03-14T08:46:17;3.93;;;2.20;;
19687;SDS011;9993;52.008;4.732;2023-03-14T08:48:42;4.60;;;2.30;;
19687;SDS011;9993;52.008;4.732;2023-03-14T08:51:08;5.03;;;1.83;;
19687;SDS011;9993;52.008;4.732;2023-03-14T08:53:35;4.97;;;1.93;;
19687;SDS011;9993;52.008;4.732;2023-03-14T08:56:00;4.37;;;1.90;;
19687;SDS011;9993;52.008;4.732;2023-03-14T08:58:26;4.40;;;2.07;;
19687;SDS011;9993;52.008;4.732;2023-03-14T09:00:51;4.70;;;1.90;;
19687;SDS011;9993;52.008;4.732;2023-03-14T09:03:16;4.83;;;1.63;;
19687;SDS011;9993;52.008;4.732;2023-03-14T09:05:41;3.37;;;1.80;;
19687;SDS011;9993;52.008;4.732;2023-03-14T09:08:07;5.83;;;2.00;;
19687;SDS011;9993;52.008;4.732;2023-03-14T09:10:32;7.53;;;2.00;;
19687;SDS011;9993;52.008;4.732;2023-03-14T09:18:59;8.10;;;2.50;;
19687;SDS011;9993;52.008;4.732;2023-03-14T09:24:40;12.37;;;3.00;;
19687;SDS011;9993;52.008;4.732;2023-03-14T09:30:31;7.03;;;2.70;;
19687;SDS011;9993;52.008;4.732;2023-03-14T09:33:02;14.70;;;3.33;;
19687;SDS011;9993;52.008;4.732;2023-03-14T09:38:46;8.83;;;3.27;;
19687;SDS011;9993;52.008;4.732;2023-03-14T09:50:40;9.93;;;3.47;;
19687;SDS011;9993;52.008;4.732;2023-03-14T09:53:08;11.37;;;4.07;;
19687;SDS011;9993;52.008;4.732;2023-03-14T09:58:33;11.17;;;3.33;;
19687;SDS011;9993;52.008;4.732;2023-03-14T10:01:00;11.77;;;3.07;;
19687;SDS011;9993;52.008;4.732;2023-03-14T10:03:33;9.87;;;2.67;;
19687;SDS011;9993;52.008;4.732;2023-03-14T10:06:01;6.87;;;2.93;;
19687;SDS011;9993;52.008;4.732;2023-03-14T10:08:27;15.37;;;3.87;;
19687;SDS011;9993;52.008;4.732;2023-03-14T10:11:28;18.80;;;3.93;;
19687;SDS011;9993;52.008;4.732;2023-03-14T10:16:47;12.93;;;3.50;;
19687;SDS011;9993;52.008;4.732;2023-03-14T10:25:03;14.07;;;4.37;;
19687;SDS011;9993;52.008;4.732;2023-03-14T10:30:47;15.50;;;4.40;;
19687;SDS011;9993;52.008;4.732;2023-03-14T10:33:31;17.93;;;4.50;;
19687;SDS011;9993;52.008;4.732;2023-03-14T10:36:15;14.53;;;3.77;;
19687;SDS011;9993;52.008;4.732;2023-03-14T10:38:48;20.17;;;5.23;;
19687;SDS011;9993;52.008;4.732;2023-03-14T10:41:23;16.80;;;4.23;;
19687;SDS011;9993;52.008;4.732;2023-03-14T10:43:59;13.57;;;3.80;;
19687;SDS011;9993;52.008;4.732;2023-03-14T10:46:34;16.17;;;4.33;;
19687;SDS011;9993;52.008;4.732;2023-03-14T10:55:08;14.20;;;4.40;;
19687;SDS011;9993;52.008;4.732;2023-03-14T10:57:43;10.83;;;3.10;;
19687;SDS011;9993;52.008;4.732;2023-03-14T11:15:10;12.20;;;3.43;;
19687;SDS011;9993;52.008;4.732;2023-03-14T11:28:50;12.63;;;2.93;;
19687;SDS011;9993;52.008;4.732;2023-03-14T11:31:16;14.40;;;3.53;;
19687;SDS011;9993;52.008;4.732;2023-03-14T11:36:15;14.10;;;3.40;;
19687;SDS011;9993;52.008;4.732;2023-03-14T11:38:49;11.40;;;3.50;;
19687;SDS011;9993;52.008;4.732;2023-03-14T11:41:19;7.07;;;2.38;;
19687;SDS011;9993;52.008;4.732;2023-03-14T11:43:47;10.25;;;3.05;;
19687;SDS011;9993;52.008;4.732;2023-03-14T11:46:17;7.35;;;2.95;;
19687;SDS011;9993;52.008;4.732;2023-03-14T11:51:29;8.20;;;2.72;;
19687;SDS011;9993;52.008;4.732;2023-03-14T11:56:25;11.70;;;3.60;;
19687;SDS011;9993;52.008;4.732;2023-03-14T11:58:57;9.23;;;3.53;;
19687;SDS011;9993;52.008;4.732;2023-03-14T12:01:25;7.95;;;2.60;;
19687;SDS011;9993;52.008;4.732;2023-03-14T12:06:38;10.18;;;2.95;;
19687;SDS011;9993;52.008;4.732;2023-03-14T12:09:05;8.80;;;2.78;;
19687;SDS011;9993;52.008;4.732;2023-03-14T12:11:54;10.80;;;2.55;;
19687;SDS011;9993;52.008;4.732;2023-03-14T12:14:21;9.33;;;2.50;;
19687;SDS011;9993;52.008;4.732;2023-03-14T12:16:48;8.90;;;3.13;;
19687;SDS011;9993;52.008;4.732;2023-03-14T12:21:43;7.63;;;2.90;;
19687;SDS011;9993;52.008;4.732;2023-03-14T12:24:16;8.70;;;2.83;;
19687;SDS011;9993;52.008;4.732;2023-03-14T12:26:49;7.28;;;2.60;;
19687;SDS011;9993;52.008;4.732;2023-03-14T12:29:15;13.53;;;3.47;;
19687;SDS011;9993;52.008;4.732;2023-03-14T12:31:42;7.40;;;2.70;;
19687;SDS011;9993;52.008;4.732;2023-03-14T12:41:41;5.50;;;2.57;;
19687;SDS011;9993;52.008;4.732;2023-03-14T12:46:53;7.77;;;2.53;;
19687;SDS011;9993;52.008;4.732;2023-03-14T12:49:18;6.73;;;2.10;;
19687;SDS011;9993;52.008;4.732;2023-03-14T12:51:44;11.57;;;3.30;;
19687;SDS011;9993;52.008;4.732;2023-03-14T12:57:03;6.70;;;2.90;;
19687;SDS011;9993;52.008;4.732;2023-03-14T12:59:30;9.43;;;2.47;;
19687;SDS011;9993;52.008;4.732;2023-03-14T13:04:37;2.87;;;1.77;;
19687;SDS011;9993;52.008;4.732;2023-03-14T13:07:12;4.57;;;2.27;;
19687;SDS011;9993;52.008;4.732;2023-03-14T13:09:49;6.10;;;2.43;;
19687;SDS011;9993;52.008;4.732;2023-03-14T13:12:17;4.73;;;2.07;;
19687;SDS011;9993;52.008;4.732;2023-03-14T13:14:47;7.50;;;2.27;;
19687;SDS011;9993;52.008;4.732;2023-03-14T13:17:13;7.67;;;2.83;;
19687;SDS011;9993;52.008;4.732;2023-03-14T13:19:39;7.23;;;2.30;;
19687;SDS011;9993;52.008;4.732;2023-03-14T13:22:06;5.13;;;1.97;;
19687;SDS011;9993;52.008;4.732;2023-03-14T13:24:33;3.73;;;2.20;;
19687;SDS011;9993;52.008;4.732;2023-03-14T13:26:59;6.83;;;2.93;;
19687;SDS011;9993;52.008;4.732;2023-03-14T13:35:48;5.03;;;1.90;;
19687;SDS011;9993;52.008;4.732;2023-03-14T13:41:18;5.90;;;2.30;;
19687;SDS011;9993;52.008;4.732;2023-03-14T13:46:47;7.07;;;2.50;;
19687;SDS011;9993;52.008;4.732;2023-03-14T13:49:25;6.70;;;2.50;;
19687;SDS011;9993;52.008;4.732;2023-03-14T13:57:56;4.67;;;1.80;;
19687;SDS011;9993;52.008;4.732;2023-03-14T14:10:05;3.73;;;1.67;;
19687;SDS011;9993;52.008;4.732;2023-03-14T14:25:24;4.37;;;2.13;;
19687;SDS011;9993;52.008;4.732;2023-03-14T14:47:24;7.53;;;2.10;;
19687;SDS011;9993;52.008;4.732;2023-03-14T15:05:16;5.13;;;2.03;;
19687;SDS011;9993;52.008;4.732;2023-03-14T15:07:45;5.30;;;2.47;;
19687;SDS011;9993;52.008;4.732;2023-03-14T15:13:29;4.07;;;1.97;;
19687;SDS011;9993;52.008;4.732;2023-03-14T15:27:52;5.03;;;1.87;;
19687;SDS011;9993;52.008;4.732;2023-03-14T15:30:45;5.77;;;2.20;;
19687;SDS011;9993;52.008;4.732;2023-03-14T15:33:28;3.27;;;1.87;;
19687;SDS011;9993;52.008;4.732;2023-03-14T15:36:02;1.90;;;1.70;;
19687;SDS011;9993;52.008;4.732;2023-03-14T15:38:46;8.70;;;2.27;;
19687;SDS011;9993;52.008;4.732;2023-03-14T16:24:53;4.07;;;2.17;;
19687;SDS011;9993;52.008;4.732;2023-03-14T16:41:01;5.07;;;2.13;;
19687;SDS011;9993;52.008;4.732;2023-03-14T16:44:07;3.23;;;2.13;;
19687;SDS011;9993;52.008;4.732;2023-03-14T16:59:02;6.63;;;2.50;;
19687;SDS011;9993;52.008;4.732;2023-03-14T17:13:38;5.97;;;2.23;;
19687;SDS011;9993;52.008;4.732;2023-03-14T17:19:09;6.97;;;2.30;;
19687;SDS011;9993;52.008;4.732;2023-03-14T17:34:00;4.60;;;2.00;;
19687;SDS011;9993;52.008;4.732;2023-03-14T17:36:25;6.50;;;1.90;;
19687;SDS011;9993;52.008;4.732;2023-03-14T17:38:54;5.60;;;2.00;;
19687;SDS011;9993;52.008;4.732;2023-03-14T17:41:20;6.50;;;1.93;;
19687;SDS011;9993;52.008;4.732;2023-03-14T17:43:54;3.17;;;2.13;;
19687;SDS011;9993;52.008;4.732;2023-03-14T17:46:21;4.57;;;2.20;;
19687;SDS011;9993;52.008;4.732;2023-03-14T17:52:04;14.20;;;2.20;;
19687;SDS011;9993;52.008;4.732;2023-03-14T17:54:42;9.87;;;2.77;;
19687;SDS011;9993;52.008;4.732;2023-03-14T17:57:07;3.63;;;2.03;;
19687;SDS011;9993;52.008;4.732;2023-03-14T18:05:31;6.67;;;2.10;;
19687;SDS011;9993;52.008;4.732;2023-03-14T18:13:47;7.80;;;3.50;;
19687;SDS011;9993;52.008;4.732;2023-03-14T18:16:27;6.80;;;2.87;;
19687;SDS011;9993;52.008;4.732;2023-03-14T18:19:05;10.40;;;2.50;;
19687;SDS011;9993;52.008;4.732;2023-03-14T18:21:30;3.60;;;2.13;;
19687;SDS011;9993;52.008;4.732;2023-03-14T18:24:03;11.60;;;2.50;;
19687;SDS011;9993;52.008;4.732;2023-03-14T18:26:46;12.27;;;2.93;;
19687;SDS011;9993;52.008;4.732;2023-03-14T18:29:21;10.90;;;3.27;;
19687;SDS011;9993;52.008;4.732;2023-03-14T18:31:46;6.47;;;2.43;;
19687;SDS011;9993;52.008;4.732;2023-03-14T18:34:14;8.90;;;2.53;;
19687;SDS011;9993;52.008;4.732;2023-03-14T18:36:39;9.30;;;3.03;;
19687;SDS011;9993;52.008;4.732;2023-03-14T18:39:22;7.33;;;2.33;;
19687;SDS011;9993;52.008;4.732;2023-03-14T18:42:03;9.03;;;3.00;;
19687;SDS011;9993;52.008;4.732;2023-03-14T18:44:40;6.23;;;2.60;;
19687;SDS011;9993;52.008;4.732;2023-03-14T18:47:24;11.37;;;2.80;;
19687;SDS011;9993;52.008;4.732;2023-03-14T18:49:54;11.13;;;2.77;;
19687;SDS011;9993;52.008;4.732;2023-03-14T18:52:42;3.23;;;2.40;;
19687;SDS011;9993;52.008;4.732;2023-03-14T18:55:07;4.23;;;2.33;;
19687;SDS011;9993;52.008;4.732;2023-03-14T18:57:43;6.03;;;2.53;;
19687;SDS011;9993;52.008;4.732;2023-03-14T19:00:08;7.80;;;3.33;;
19687;SDS011;9993;52.008;4.732;2023-03-14T19:02:46;5.87;;;3.20;;
19687;SDS011;9993;52.008;4.732;2023-03-14T19:05:27;12.60;;;4.20;;
19687;SDS011;9993;52.008;4.732;2023-03-14T19:13:42;5.47;;;3.27;;
19687;SDS011;9993;52.008;4.732;2023-03-14T19:16:38;8.60;;;2.53;;
19687;SDS011;9993;52.008;4.732;2023-03-14T19:19:19;6.97;;;2.90;;
19687;SDS011;9993;52.008;4.732;2023-03-14T19:21:45;9.33;;;2.77;;
19687;SDS011;9993;52.008;4.732;2023-03-14T19:24:19;6.07;;;2.70;;
19687;SDS011;9993;52.008;4.732;2023-03-14T19:27:03;8.40;;;3.03;;
19687;SDS011;9993;52.008;4.732;2023-03-14T19:29:40;9.17;;;2.90;;
19687;SDS011;9993;52.008;4.732;2023-03-14T19:32:07;8.43;;;3.33;;
19687;SDS011;9993;52.008;4.732;2023-03-14T19:34:46;9.40;;;4.20;;
19687;SDS011;9993;52.008;4.732;2023-03-14T19:37:24;7.73;;;2.73;;
19687;SDS011;9993;52.008;4.732;2023-03-14T19:39:50;8.63;;;3.57;;
19687;SDS011;9993;52.008;4.732;2023-03-14T19:42:15;16.53;;;5.13;;
19687;SDS011;9993;52.008;4.732;2023-03-14T19:44:40;9.83;;;5.60;;
19687;SDS011;9993;52.008;4.732;2023-03-14T19:47:05;8.70;;;4.13;;
19687;SDS011;9993;52.008;4.732;2023-03-14T19:49:31;6.50;;;3.53;;
19687;SDS011;9993;52.008;4.732;2023-03-14T19:51:56;4.37;;;2.70;;
19687;SDS011;9993;52.008;4.732;2023-03-14T19:54:22;7.27;;;2.83;;
19687;SDS011;9993;52.008;4.732;2023-03-14T19:56:48;6.27;;;2.90;;
19687;SDS011;9993;52.008;4.732;2023-03-14T19:59:14;7.57;;;2.43;;
19687;SDS011;9993;52.008;4.732;2023-03-14T20:01:39;6.20;;;2.40;;
19687;SDS011;9993;52.008;4.732;2023-03-14T20:04:05;3.83;;;2.13;;
19687;SDS011;9993;52.008;4.732;2023-03-14T20:06:30;4.53;;;2.30;;
19687;SDS011;9993;52.008;4.732;2023-03-14T20:08:57;5.07;;;2.33;;
19687;SDS011;9993;52.008;4.732;2023-03-14T20:11:22;8.70;;;2.43;;
19687;SDS011;9993;52.008;4.732;2023-03-14T20:13:47;6.50;;;2.50;;
19687;SDS011;9993;52.008;4.732;2023-03-14T20:16:13;8.17;;;2.67;;
19687;SDS011;9993;52.008;4.732;2023-03-14T20:18:38;8.60;;;3.13;;
19687;SDS011;9993;52.008;4.732;2023-03-14T20:21:04;6.17;;;2.73;;
19687;SDS011;9993;52.008;4.732;2023-03-14T20:23:29;8.10;;;2.60;;
19687;SDS011;9993;52.008;4.732;2023-03-14T20:25:55;5.40;;;2.23;;
19687;SDS011;9993;52.008;4.732;2023-03-14T20:28:21;5.50;;;1.67;;
19687;SDS011;9993;52.008;4.732;2023-03-14T20:30:46;5.13;;;2.10;;
19687;SDS011;9993;52.008;4.732;2023-03-14T20:33:11;5.43;;;2.50;;
19687;SDS011;9993;52.008;4.732;2023-03-14T20:35:37;5.73;;;2.93;;
19687;SDS011;9993;52.008;4.732;2023-03-14T20:38:02;5.83;;;2.20;;
19687;SDS011;9993;52.008;4.732;2023-03-14T20:40:28;7.73;;;2.27;;
19687;SDS011;9993;52.008;4.732;2023-03-14T20:42:53;7.53;;;2.20;;
19687;SDS011;9993;52.008;4.732;2023-03-14T20:45:18;11.03;;;2.20;;
19687;SDS011;9993;52.008;4.732;2023-03-14T20:47:46;5.97;;;2.43;;
19687;SDS011;9993;52.008;4.732;2023-03-14T20:50:11;4.30;;;2.43;;
19687;SDS011;9993;52.008;4.732;2023-03-14T20:52:37;7.03;;;2.90;;
19687;SDS011;9993;52.008;4.732;2023-03-14T20:55:02;5.40;;;2.57;;
19687;SDS011;9993;52.008;4.732;2023-03-14T20:57:28;8.73;;;2.87;;
19687;SDS011;9993;52.008;4.732;2023-03-14T20:59:56;3.37;;;3.00;;
19687;SDS011;9993;52.008;4.732;2023-03-14T21:02:21;8.50;;;3.33;;
19687;SDS011;9993;52.008;4.732;2023-03-14T21:04:46;3.60;;;2.57;;
19687;SDS011;9993;52.008;4.732;2023-03-14T21:07:11;5.40;;;3.37;;
19687;SDS011;9993;52.008;4.732;2023-03-14T21:09:37;6.97;;;3.60;;
19687;SDS011;9993;52.008;4.732;2023-03-14T22:30:39;1.60;;;1.50;;
19687;SDS011;9993;52.008;4.732;2023-03-14T23:11:49;7.67;;;3.23;;
19687;SDS011;9993;52.008;4.732;2023-03-14T23:26:32;3.03;;;2.17;;
19687;SDS011;9993;52.008;4.732;2023-03-14T23:32:23;2.03;;;1.33;;
19687;SDS011;9993;52.008;4.732;2023-03-14T23:34:48;1.10;;;1.10;;
19687;SDS011;9993;52.008;4.732;2023-03-14T23:43:27;1.40;;;1.30;;
19687;SDS011;9993;52.008;4.732;2023-03-14T23:45:53;3.03;;;1.50;;
19687;SDS011;9993;52.008;4.732;2023-03-14T23:48:19;1.40;;;1.40;;
19687;SDS011;9993;52.008;4.732;2023-03-14T23:53:43;1.53;;;1.43;;
19687;SDS011;9993;52.008;4.732;2023-03-14T23:56:24;3.90;;;1.33;;
19687;SDS011;9993;52.008;4.732;2023-03-14T23:59:04;1.53;;;1.43;;
